createdAt,value
2023-05-16T00:00:02.502Z,27.28
2023-05-16T00:01:02.534Z,29.38
2023-05-16T00:02:02.599Z,25.00
2023-05-16T00:03:02.642Z,28.07
2023-05-16T00:04:02.657Z,30.04
2023-05-16T00:05:02.641Z,28.82
2023-05-16T00:06:02.671Z,32.12
2023-05-16T00:07:02.696Z,29.28
2023-05-16T00:08:02.724Z,27.78
2023-05-16T00:09:02.764Z,27.89
2023-05-16T00:10:02.810Z,28.14
2023-05-16T00:11:02.826Z,30.36
2023-05-16T00:12:02.855Z,28.99
2023-05-16T00:13:02.890Z,28.33
2023-05-16T00:14:02.933Z,29.28
2023-05-16T00:15:02.951Z,25.00
2023-05-16T00:16:02.992Z,29.62
2023-05-16T00:17:03.093Z,27.99
2023-05-16T00:18:03.100Z,32.11
2023-05-16T00:19:03.061Z,30.85
2023-05-16T00:20:03.082Z,29.63
2023-05-16T00:21:03.104Z,29.33
2023-05-16T00:22:03.137Z,29.88
2023-05-16T00:23:03.169Z,30.47
2023-05-16T00:24:03.183Z,27.33
2023-05-16T00:25:03.216Z,26.04
2023-05-16T00:26:03.233Z,30.64
2023-05-16T00:27:03.266Z,28.39
2023-05-16T00:28:03.296Z,29.00
2023-05-16T00:29:03.324Z,28.06
2023-05-16T00:30:03.339Z,28.09
2023-05-16T00:31:03.381Z,28.14
2023-05-16T00:32:03.427Z,27.26
2023-05-16T00:33:03.472Z,28.31
2023-05-16T00:34:03.484Z,26.02
2023-05-16T00:35:03.473Z,29.52
2023-05-16T00:36:03.547Z,28.82
2023-05-16T00:37:03.537Z,28.05
2023-05-16T00:38:03.590Z,30.18
2023-05-16T00:39:03.614Z,31.48
2023-05-16T00:40:03.683Z,27.20
2023-05-16T00:41:03.695Z,29.91
2023-05-16T00:42:03.720Z,29.55
2023-05-16T00:43:03.715Z,28.29
2023-05-16T00:44:03.763Z,27.16
2023-05-16T00:45:03.795Z,29.82
2023-05-16T00:46:03.869Z,29.05
2023-05-16T00:47:03.834Z,28.19
2023-05-16T00:48:03.939Z,30.80
2023-05-16T00:49:03.896Z,25.66
2023-05-16T00:50:03.936Z,30.58
2023-05-16T00:51:03.982Z,25.00
2023-05-16T00:52:03.977Z,31.02
2023-05-16T00:53:04.018Z,27.98
2023-05-16T00:54:04.057Z,29.76
2023-05-16T00:55:04.073Z,28.59
2023-05-16T00:56:04.110Z,26.71
2023-05-16T00:57:04.096Z,28.47
2023-05-16T00:58:04.121Z,30.77
2023-05-16T00:59:04.254Z,29.62
2023-05-16T01:00:04.150Z,29.40
2023-05-16T01:01:04.347Z,29.04
2023-05-16T01:02:04.297Z,32.23
2023-05-16T01:03:04.340Z,28.37
2023-05-16T01:04:04.357Z,28.68
2023-05-16T01:05:04.264Z,28.72
2023-05-16T01:06:04.302Z,29.34
2023-05-16T01:07:04.328Z,28.86
2023-05-16T01:08:04.366Z,31.48
2023-05-16T01:09:04.388Z,26.60
2023-05-16T01:10:04.438Z,29.17
2023-05-16T01:11:04.467Z,29.13
2023-05-16T01:12:04.498Z,26.93
2023-05-16T01:13:04.528Z,28.50
2023-05-16T01:14:04.551Z,28.18
2023-05-16T01:15:04.597Z,30.03
2023-05-16T01:16:04.741Z,29.98
2023-05-16T01:17:04.659Z,28.28
2023-05-16T01:18:04.852Z,27.63
2023-05-16T01:19:04.771Z,29.31
2023-05-16T01:20:04.758Z,29.32
2023-05-16T01:21:04.800Z,28.66
2023-05-16T01:22:04.804Z,28.51
2023-05-16T01:23:04.835Z,29.58
2023-05-16T01:24:04.895Z,29.67
2023-05-16T01:25:04.917Z,28.69
2023-05-16T01:26:04.936Z,25.96
2023-05-16T01:27:04.982Z,29.48
2023-05-16T01:28:04.995Z,29.68
2023-05-16T01:29:05.025Z,28.27
2023-05-16T01:30:05.053Z,30.69
2023-05-16T01:31:05.223Z,28.93
2023-05-16T01:32:05.147Z,28.03
2023-05-16T01:33:05.267Z,31.07
2023-05-16T01:34:05.164Z,28.47
2023-05-16T01:35:05.200Z,27.27
2023-05-16T01:36:05.226Z,28.02
2023-05-16T01:37:05.272Z,29.02
2023-05-16T01:38:05.300Z,28.35
2023-05-16T01:39:05.332Z,26.89
2023-05-16T01:40:05.369Z,28.46
2023-05-16T01:41:05.409Z,29.80
2023-05-16T01:42:05.438Z,30.32
2023-05-16T01:43:05.463Z,28.70
2023-05-16T01:44:05.508Z,28.49
2023-05-16T01:45:05.524Z,31.18
2023-05-16T01:46:05.579Z,26.29
2023-05-16T01:47:05.949Z,28.83
2023-05-16T01:48:05.686Z,29.93
2023-05-16T01:49:05.650Z,28.58
2023-05-16T01:50:05.689Z,29.33
2023-05-16T01:51:05.767Z,29.32
2023-05-16T01:52:05.754Z,29.29
2023-05-16T01:53:05.791Z,29.53
2023-05-16T01:54:05.879Z,29.76
2023-05-16T01:55:05.867Z,31.76
2023-05-16T01:56:05.903Z,29.69
2023-05-16T01:57:05.944Z,28.50
2023-05-16T01:58:05.981Z,30.00
2023-05-16T01:59:06.002Z,30.97
2023-05-16T02:00:06.040Z,29.48
2023-05-16T02:01:06.102Z,30.11
2023-05-16T02:02:06.126Z,30.74
2023-05-16T02:03:06.194Z,29.23
2023-05-16T02:04:06.332Z,29.75
2023-05-16T02:05:06.197Z,28.43
2023-05-16T02:06:06.245Z,25.95
2023-05-16T02:07:06.273Z,28.75
2023-05-16T02:08:06.311Z,27.71
2023-05-16T02:09:06.342Z,28.61
2023-05-16T02:10:06.385Z,28.47
2023-05-16T02:11:06.405Z,28.17
2023-05-16T02:12:06.437Z,29.56
2023-05-16T02:13:06.483Z,30.39
2023-05-16T02:14:06.488Z,29.10
2023-05-16T02:15:06.517Z,29.27
2023-05-16T02:16:06.621Z,27.33
2023-05-16T02:17:06.609Z,29.15
2023-05-16T02:18:06.691Z,28.30
2023-05-16T02:19:06.716Z,28.84
2023-05-16T02:20:06.678Z,31.34
2023-05-16T02:21:06.695Z,31.10
2023-05-16T02:22:06.737Z,28.85
2023-05-16T02:23:06.745Z,26.40
2023-05-16T02:24:06.764Z,29.38
2023-05-16T02:25:06.810Z,29.01
2023-05-16T02:26:06.837Z,30.87
2023-05-16T02:27:06.878Z,29.59
2023-05-16T02:28:06.912Z,28.54
2023-05-16T02:29:06.916Z,26.04
2023-05-16T02:30:06.948Z,27.00
2023-05-16T02:31:07.023Z,26.03
2023-05-16T02:32:07.018Z,29.73
2023-05-16T02:33:07.210Z,27.30
2023-05-16T02:34:07.092Z,30.70
2023-05-16T02:35:07.092Z,26.91
2023-05-16T02:36:07.125Z,27.08
2023-05-16T02:37:07.163Z,29.03
2023-05-16T02:38:07.239Z,27.25
2023-05-16T02:39:07.224Z,27.41
2023-05-16T02:40:07.269Z,27.10
2023-05-16T02:41:07.302Z,28.18
2023-05-16T02:42:07.357Z,26.12
2023-05-16T02:43:07.358Z,25.80
2023-05-16T02:44:07.422Z,26.96
2023-05-16T02:45:07.453Z,30.98
2023-05-16T02:46:07.492Z,29.47
2023-05-16T02:47:07.484Z,28.88
2023-05-16T02:48:07.554Z,30.17
2023-05-16T02:49:07.553Z,28.30
2023-05-16T02:50:07.590Z,29.68
2023-05-16T02:51:07.654Z,29.96
2023-05-16T02:52:07.665Z,28.61
2023-05-16T02:53:07.693Z,30.97
2023-05-16T02:54:07.739Z,29.45
2023-05-16T02:56:07.807Z,33.93
2023-05-16T02:57:07.762Z,30.00
2023-05-16T02:58:07.740Z,30.54
2023-05-16T02:59:07.735Z,33.76
2023-05-16T03:00:07.737Z,30.26
2023-05-16T03:01:07.771Z,31.27
2023-05-16T03:02:07.944Z,31.06
2023-05-16T03:03:07.893Z,29.29
2023-05-16T03:04:07.742Z,29.03
2023-05-16T03:05:07.710Z,30.03
2023-05-16T03:06:07.724Z,30.74
2023-05-16T03:07:07.697Z,27.23
2023-05-16T03:08:07.684Z,30.39
2023-05-16T03:09:07.683Z,30.98
2023-05-16T03:10:07.685Z,29.15
2023-05-16T03:11:07.663Z,30.56
2023-05-16T03:12:07.652Z,29.96
2023-05-16T03:13:07.665Z,29.34
2023-05-16T03:14:07.646Z,29.69
2023-05-16T03:15:07.649Z,27.89
2023-05-16T03:16:07.670Z,32.07
2023-05-16T03:17:07.627Z,26.26
2023-05-16T03:18:07.766Z,29.36
2023-05-16T03:19:07.746Z,30.44
2023-05-16T03:20:07.616Z,28.34
2023-05-16T03:21:07.602Z,27.90
2023-05-16T03:22:07.604Z,27.72
2023-05-16T03:23:07.574Z,27.02
2023-05-16T03:24:07.601Z,29.59
2023-05-16T03:25:07.585Z,30.81
2023-05-16T03:26:07.613Z,28.08
2023-05-16T03:27:07.553Z,30.42
2023-05-16T03:28:07.600Z,29.00
2023-05-16T03:29:07.546Z,26.04
2023-05-16T03:30:07.582Z,30.17
2023-05-16T03:31:07.558Z,27.57
2023-05-16T03:32:07.727Z,26.73
2023-05-16T03:33:07.575Z,32.38
2023-05-16T03:34:07.530Z,28.36
2023-05-16T03:35:07.558Z,26.79
2023-05-16T03:36:07.515Z,30.55
2023-05-16T03:37:07.494Z,30.44
2023-05-16T03:38:07.502Z,31.31
2023-05-16T03:39:07.482Z,28.85
2023-05-16T03:40:07.503Z,32.46
2023-05-16T03:41:07.478Z,30.27
2023-05-16T03:42:07.502Z,29.28
2023-05-16T03:43:07.472Z,30.11
2023-05-16T03:44:07.459Z,29.67
2023-05-16T03:45:07.440Z,30.22
2023-05-16T03:46:07.535Z,29.21
2023-05-16T03:47:07.430Z,28.85
2023-05-16T03:48:07.486Z,27.68
2023-05-16T03:49:07.435Z,30.31
2023-05-16T03:50:07.452Z,26.20
2023-05-16T03:51:07.483Z,30.46
2023-05-16T03:52:07.513Z,28.37
2023-05-16T03:53:07.584Z,25.81
2023-05-16T03:54:07.644Z,28.21
2023-05-16T03:55:07.644Z,29.25
2023-05-16T03:56:07.668Z,29.23
2023-05-16T03:57:07.695Z,26.49
2023-05-16T03:58:07.732Z,30.66
2023-05-16T03:59:07.787Z,29.99
2023-05-16T04:00:07.842Z,29.43
2023-05-16T04:01:07.826Z,32.38
2023-05-16T04:02:07.904Z,30.33
2023-05-16T04:03:07.984Z,30.63
2023-05-16T04:04:07.918Z,29.56
2023-05-16T04:05:08.004Z,29.64
2023-05-16T04:06:08.060Z,27.61
2023-05-16T04:07:08.020Z,28.19
2023-05-16T04:08:08.052Z,28.61
2023-05-16T04:09:08.083Z,29.27
2023-05-16T04:10:08.103Z,29.46
2023-05-16T04:11:08.277Z,27.66
2023-05-16T04:12:08.177Z,28.23
2023-05-16T04:13:08.212Z,26.47
2023-05-16T04:14:08.288Z,28.86
2023-05-16T04:15:08.276Z,28.18
2023-05-16T04:16:08.369Z,26.50
2023-05-16T04:17:08.547Z,30.83
2023-05-16T04:18:08.439Z,30.58
2023-05-16T04:19:08.484Z,29.86
2023-05-16T04:20:08.528Z,27.39
2023-05-16T04:21:08.543Z,26.02
2023-05-16T04:22:08.572Z,27.76
2023-05-16T04:23:08.623Z,27.58
2023-05-16T04:24:08.665Z,29.15
2023-05-16T04:25:08.721Z,30.26
2023-05-16T04:26:08.754Z,26.59
2023-05-16T04:27:08.812Z,27.85
2023-05-16T04:28:08.841Z,27.59
2023-05-16T04:29:08.919Z,30.85
2023-05-16T04:30:08.955Z,29.57
2023-05-16T04:31:09.058Z,29.97
2023-05-16T04:32:09.022Z,33.21
2023-05-16T04:33:09.152Z,30.59
2023-05-16T04:34:09.108Z,29.92
2023-05-16T04:35:09.203Z,29.60
2023-05-16T04:36:09.180Z,26.97
2023-05-16T04:37:09.243Z,31.48
2023-05-16T04:38:09.279Z,26.72
2023-05-16T04:39:09.319Z,29.73
2023-05-16T04:40:09.356Z,29.55
2023-05-16T04:41:09.368Z,28.83
2023-05-16T04:42:09.431Z,27.06
2023-05-16T04:43:09.462Z,32.10
2023-05-16T04:44:09.485Z,33.99
2023-05-16T04:45:09.523Z,29.77
2023-05-16T04:46:09.614Z,28.45
2023-05-16T04:47:09.624Z,27.79
2023-05-16T04:48:09.675Z,29.82
2023-05-16T04:49:09.678Z,27.80
2023-05-16T04:50:09.731Z,29.45
2023-05-16T04:51:09.768Z,28.16
2023-05-16T04:52:09.796Z,28.06
2023-05-16T04:53:09.823Z,28.78
2023-05-16T04:54:09.869Z,29.26
2023-05-16T04:55:09.911Z,28.58
2023-05-16T04:56:09.954Z,28.19
2023-05-16T04:57:09.976Z,28.86
2023-05-16T04:58:10.037Z,28.05
2023-05-16T04:59:10.051Z,26.27
2023-05-16T05:00:10.094Z,28.51
2023-05-16T05:01:10.168Z,28.35
2023-05-16T05:02:10.302Z,30.48
2023-05-16T05:03:10.233Z,30.95
2023-05-16T05:04:10.288Z,28.96
2023-05-16T05:05:10.421Z,31.28
2023-05-16T05:06:10.358Z,31.91
2023-05-16T05:07:10.413Z,33.34
2023-05-16T05:08:10.455Z,29.58
2023-05-16T05:09:10.483Z,30.34
2023-05-16T05:10:10.519Z,31.95
2023-05-16T05:11:10.554Z,27.36
2023-05-16T05:12:10.579Z,31.75
2023-05-16T05:13:10.618Z,31.76
2023-05-16T05:14:10.653Z,28.76
2023-05-16T05:15:10.702Z,29.03
2023-05-16T05:16:10.759Z,30.03
2023-05-16T05:17:10.807Z,28.25
2023-05-16T05:18:10.991Z,27.64
2023-05-16T05:19:10.875Z,27.76
2023-05-16T05:20:10.882Z,28.00
2023-05-16T05:21:10.978Z,28.31
2023-05-16T05:22:10.976Z,29.09
2023-05-16T05:23:11.008Z,28.64
2023-05-16T05:24:11.036Z,27.62
2023-05-16T05:25:11.091Z,27.41
2023-05-16T05:26:11.127Z,25.80
2023-05-16T05:27:11.182Z,29.22
2023-05-16T05:28:11.195Z,31.03
2023-05-16T05:29:11.254Z,30.61
2023-05-16T05:30:11.368Z,29.85
2023-05-16T05:31:11.377Z,32.30
2023-05-16T05:32:11.469Z,39.67
2023-05-16T05:33:11.667Z,108.33
2023-05-16T05:34:11.452Z,129.58
2023-05-16T05:35:11.503Z,149.33
2023-05-16T05:36:11.552Z,148.35
2023-05-16T05:37:11.585Z,170.15
2023-05-16T05:38:11.716Z,175.22
2023-05-16T05:39:11.679Z,188.64
2023-05-16T05:40:11.771Z,205.59
2023-05-16T05:41:11.796Z,219.39
2023-05-16T05:42:11.847Z,214.33
2023-05-16T05:43:11.927Z,221.76
2023-05-16T05:44:11.985Z,213.37
2023-05-16T05:45:12.025Z,199.25
2023-05-16T05:46:12.156Z,205.91
2023-05-16T05:47:12.136Z,220.70
2023-05-16T05:48:12.307Z,213.16
2023-05-16T05:49:12.299Z,198.43
2023-05-16T05:50:13.109Z,186.52
2023-05-16T05:51:12.418Z,186.64
2023-05-16T05:52:12.435Z,180.88
2023-05-16T05:53:12.485Z,169.67
2023-05-16T05:54:12.651Z,167.77
2023-05-16T05:55:12.613Z,161.44
2023-05-16T05:56:12.665Z,163.67
2023-05-16T05:57:12.707Z,162.86
2023-05-16T05:58:12.919Z,157.68
2023-05-16T05:59:12.946Z,156.40
2023-05-16T06:00:12.979Z,142.91
2023-05-16T06:01:13.025Z,139.16
2023-05-16T06:02:13.046Z,136.77
2023-05-16T06:03:13.139Z,133.77
2023-05-16T06:04:13.099Z,125.99
2023-05-16T06:05:13.149Z,135.99
2023-05-16T06:06:13.179Z,136.60
2023-05-16T06:07:13.241Z,136.14
2023-05-16T06:08:13.273Z,124.50
2023-05-16T06:09:13.326Z,123.67
2023-05-16T06:10:13.371Z,122.61
2023-05-16T06:11:13.448Z,124.63
2023-05-16T06:12:13.465Z,120.86
2023-05-16T06:13:13.529Z,121.41
2023-05-16T06:14:13.586Z,115.36
2023-05-16T06:15:13.628Z,115.42
2023-05-16T06:16:13.810Z,113.46
2023-05-16T06:17:13.788Z,115.17
2023-05-16T06:18:13.783Z,117.18
2023-05-16T06:19:13.853Z,114.39
2023-05-16T06:20:13.853Z,114.51
2023-05-16T06:21:13.986Z,115.68
2023-05-16T06:22:13.986Z,110.10
2023-05-16T06:23:14.076Z,144.20
2023-05-16T06:24:14.097Z,132.04
2023-05-16T06:25:14.248Z,120.91
2023-05-16T06:26:14.385Z,112.89
2023-05-16T06:27:14.347Z,110.17
2023-05-16T06:28:14.405Z,106.90
2023-05-16T06:29:14.420Z,104.10
2023-05-16T06:30:14.490Z,103.21
2023-05-16T06:31:14.569Z,103.77
2023-05-16T06:32:14.582Z,110.95
2023-05-16T06:33:14.642Z,116.42
2023-05-16T06:34:14.699Z,126.06
2023-05-16T06:35:14.765Z,124.21
2023-05-16T06:36:14.846Z,130.19
2023-05-16T06:37:14.865Z,144.71
2023-05-16T06:38:14.975Z,162.78
2023-05-16T06:39:14.969Z,161.67
2023-05-16T06:40:15.054Z,167.45
2023-05-16T06:41:15.543Z,174.19
2023-05-16T06:42:15.112Z,176.16
2023-05-16T06:43:15.182Z,179.06
2023-05-16T06:44:15.237Z,173.38
2023-05-16T06:45:15.307Z,170.76
2023-05-16T06:46:15.380Z,164.48
2023-05-16T06:47:15.362Z,161.09
2023-05-16T06:48:15.536Z,162.42
2023-05-16T06:49:15.509Z,160.91
2023-05-16T06:50:15.530Z,158.14
2023-05-16T06:51:16.017Z,161.02
2023-05-16T06:52:15.644Z,159.79
2023-05-16T06:53:15.702Z,156.83
2023-05-16T06:54:15.781Z,162.49
2023-05-16T06:55:15.796Z,159.53
2023-05-16T06:56:15.849Z,152.83
2023-05-16T06:57:15.905Z,160.33
2023-05-16T06:58:15.947Z,162.37
2023-05-16T06:59:16.020Z,160.33
2023-05-16T07:00:16.050Z,159.67
2023-05-16T07:01:16.122Z,161.85
2023-05-16T07:02:16.221Z,162.86
2023-05-16T07:03:16.298Z,157.38
2023-05-16T07:04:16.266Z,154.26
2023-05-16T07:05:16.363Z,150.18
2023-05-16T07:06:16.339Z,145.32
2023-05-16T07:07:16.411Z,145.68
2023-05-16T07:08:16.436Z,142.47
2023-05-16T07:09:16.554Z,141.14
2023-05-16T07:10:16.541Z,140.20
2023-05-16T07:11:16.566Z,141.15
2023-05-16T07:12:16.630Z,141.25
2023-05-16T07:13:16.695Z,141.34
2023-05-16T07:14:16.698Z,139.52
2023-05-16T07:15:16.740Z,138.79
2023-05-16T07:16:16.822Z,139.05
2023-05-16T07:17:16.821Z,137.99
2023-05-16T07:18:16.920Z,131.85
2023-05-16T07:19:16.974Z,143.33
2023-05-16T07:20:16.945Z,141.31
2023-05-16T07:21:16.995Z,137.65
2023-05-16T07:22:17.020Z,134.23
2023-05-16T07:23:17.102Z,129.73
2023-05-16T07:24:17.125Z,131.34
2023-05-16T07:25:17.175Z,129.18
2023-05-16T07:26:17.531Z,128.55
2023-05-16T07:27:17.252Z,131.26
2023-05-16T07:28:17.300Z,128.48
2023-05-16T07:29:17.355Z,131.94
2023-05-16T07:30:17.429Z,133.43
2023-05-16T07:31:17.470Z,142.62
2023-05-16T07:32:17.493Z,151.69
2023-05-16T07:33:17.544Z,168.51
2023-05-16T07:34:17.578Z,500.00
2023-05-16T07:35:17.646Z,290.50
2023-05-16T07:36:17.952Z,239.51
2023-05-16T07:37:17.735Z,222.98
2023-05-16T07:38:17.776Z,214.95
2023-05-16T07:39:17.802Z,210.67
2023-05-16T07:40:17.854Z,209.34
2023-05-16T07:41:17.909Z,202.31
2023-05-16T07:42:17.930Z,197.32
2023-05-16T07:43:17.995Z,195.91
2023-05-16T07:44:18.068Z,192.66
2023-05-16T07:45:18.072Z,189.47
2023-05-16T07:46:18.549Z,183.72
2023-05-16T07:47:18.204Z,179.63
2023-05-16T07:48:18.255Z,176.86
2023-05-16T07:49:18.379Z,178.52
2023-05-16T07:50:18.367Z,177.45
2023-05-16T07:51:18.406Z,174.89
2023-05-16T07:52:18.482Z,173.68
2023-05-16T07:53:18.517Z,169.61
2023-05-16T07:54:18.635Z,169.63
2023-05-16T07:55:18.630Z,167.39
2023-05-16T07:56:18.706Z,165.97
2023-05-16T07:57:18.748Z,166.47
2023-05-16T07:58:18.791Z,170.84
2023-05-16T07:59:18.903Z,169.51
2023-05-16T08:00:18.901Z,166.91
2023-05-16T08:01:18.997Z,166.59
2023-05-16T08:02:19.061Z,164.16
2023-05-16T08:03:19.156Z,159.67
2023-05-16T08:04:19.110Z,162.26
2023-05-16T08:05:19.225Z,161.95
2023-05-16T08:06:19.226Z,159.20
2023-05-16T08:07:19.292Z,156.68
2023-05-16T08:08:19.371Z,155.42
2023-05-16T08:09:19.405Z,153.77
2023-05-16T08:10:19.469Z,149.73
2023-05-16T08:11:19.615Z,150.63
2023-05-16T08:12:19.596Z,147.51
2023-05-16T08:13:19.655Z,147.42
2023-05-16T08:14:19.695Z,151.82
2023-05-16T08:15:19.755Z,152.17
2023-05-16T08:16:19.896Z,153.76
2023-05-16T08:17:19.911Z,153.13
2023-05-16T08:18:22.281Z,154.36
2023-05-16T08:19:20.033Z,150.93
2023-05-16T08:20:19.984Z,149.89
2023-05-16T08:21:19.957Z,149.48
2023-05-16T08:22:19.948Z,145.42
2023-05-16T08:23:19.916Z,145.89
2023-05-16T08:24:19.941Z,150.08
2023-05-16T08:25:19.921Z,151.15
2023-05-16T08:26:19.915Z,156.90
2023-05-16T08:27:19.893Z,164.46
2023-05-16T08:28:19.864Z,156.24
2023-05-16T08:29:19.874Z,151.57
2023-05-16T08:30:19.866Z,152.78
2023-05-16T08:31:20.072Z,156.88
2023-05-16T08:32:19.864Z,161.16
2023-05-16T08:33:20.619Z,163.63
2023-05-16T08:34:19.874Z,162.27
2023-05-16T08:35:19.856Z,162.31
2023-05-16T08:36:19.858Z,161.05
2023-05-16T08:37:19.808Z,159.25
2023-05-16T08:38:19.817Z,151.08
2023-05-16T08:39:19.824Z,159.00
2023-05-16T08:40:19.809Z,162.34
2023-05-16T08:41:20.042Z,163.58
2023-05-16T08:42:19.803Z,165.60
2023-05-16T08:43:20.591Z,167.82
2023-05-16T08:44:19.802Z,161.14
2023-05-16T08:45:19.764Z,159.07
2023-05-16T08:46:19.775Z,156.82
2023-05-16T08:47:19.814Z,154.18
2023-05-16T08:48:19.873Z,153.97
2023-05-16T08:49:19.735Z,149.63
2023-05-16T08:50:19.733Z,146.74
2023-05-16T08:51:19.827Z,143.49
2023-05-16T08:52:19.749Z,145.91
2023-05-16T08:53:19.709Z,143.92
2023-05-16T08:54:19.930Z,146.54
2023-05-16T08:55:19.699Z,148.01
2023-05-16T08:56:19.703Z,147.48
2023-05-16T08:57:19.759Z,143.39
2023-05-16T08:58:19.814Z,143.24
2023-05-16T08:59:19.860Z,142.93
2023-05-16T09:00:19.947Z,143.48
2023-05-16T09:01:20.089Z,140.84
2023-05-16T09:02:20.034Z,137.81
2023-05-16T09:03:20.159Z,134.55
2023-05-16T09:04:20.186Z,133.84
2023-05-16T09:05:20.162Z,127.33
2023-05-16T09:06:20.544Z,124.87
2023-05-16T09:07:20.262Z,122.19
2023-05-16T09:08:20.334Z,123.20
2023-05-16T09:09:20.360Z,115.94
2023-05-16T09:10:20.448Z,108.94
2023-05-16T09:11:20.480Z,90.15
2023-05-16T09:12:20.528Z,85.52
2023-05-16T09:13:20.568Z,75.82
2023-05-16T09:14:20.618Z,74.04
2023-05-16T09:15:20.702Z,69.07
2023-05-16T09:16:20.781Z,59.70
2023-05-16T09:17:35.958Z,59.18
2023-05-16T09:18:21.838Z,51.20
2023-05-16T09:19:20.820Z,36.88
2023-05-16T09:20:20.868Z,34.85
2023-05-16T09:21:20.788Z,47.05
2023-05-16T09:22:20.767Z,47.28
2023-05-16T09:23:20.739Z,29.07
2023-05-16T09:24:20.744Z,25.00
2023-05-16T09:25:29.341Z,25.00
2023-05-16T09:26:21.750Z,19.75
2023-05-16T09:27:20.758Z,22.87
2023-05-16T09:28:20.719Z,7.38
2023-05-16T09:29:20.730Z,10.13
2023-05-16T09:30:20.720Z,17.56
2023-05-16T09:31:20.782Z,22.39
2023-05-16T09:32:21.555Z,25.95
2023-05-16T09:33:20.705Z,40.35
2023-05-16T09:34:20.668Z,42.96
2023-05-16T09:35:35.159Z,47.61
2023-05-16T09:36:21.666Z,47.78
2023-05-16T09:37:20.776Z,48.01
2023-05-16T09:38:20.700Z,49.35
2023-05-16T09:39:20.657Z,54.00
2023-05-16T09:40:20.656Z,52.72
2023-05-16T09:41:21.062Z,29.78
2023-05-16T09:42:20.612Z,24.30
2023-05-16T09:43:20.605Z,22.08
2023-05-16T09:44:20.608Z,26.58
2023-05-16T09:45:20.680Z,22.95
2023-05-16T09:46:21.103Z,25.00
2023-05-16T09:47:20.778Z,26.09
2023-05-16T09:48:20.813Z,26.02
2023-05-16T09:49:20.898Z,25.02
2023-05-16T09:50:20.931Z,32.00
2023-05-16T09:51:20.984Z,35.03
2023-05-16T09:52:21.035Z,39.00
2023-05-16T09:53:21.181Z,57.32
2023-05-16T09:54:21.138Z,73.94
2023-05-16T09:55:21.237Z,81.55
2023-05-16T09:56:21.267Z,80.11
2023-05-16T09:57:21.310Z,82.40
2023-05-16T09:58:21.382Z,86.15
2023-05-16T09:59:21.553Z,90.26
2023-05-16T10:00:21.458Z,94.33
2023-05-16T10:01:21.559Z,93.69
2023-05-16T10:02:21.618Z,93.32
2023-05-16T10:03:21.770Z,90.74
2023-05-16T10:04:21.738Z,91.12
2023-05-16T10:05:21.689Z,96.93
2023-05-16T10:06:21.755Z,101.39
2023-05-16T10:07:21.777Z,103.15
2023-05-16T10:08:21.808Z,102.93
2023-05-16T10:09:21.856Z,106.24
2023-05-16T10:10:21.888Z,109.68
2023-05-16T10:11:21.922Z,117.09
2023-05-16T10:12:21.951Z,112.39
2023-05-16T10:13:22.024Z,112.91
2023-05-16T10:14:22.025Z,118.78
2023-05-16T10:15:22.060Z,114.21
2023-05-16T10:16:22.165Z,125.77
2023-05-16T10:17:22.110Z,131.58
2023-05-16T10:18:22.146Z,131.89
2023-05-16T10:19:22.357Z,134.70
2023-05-16T10:20:22.193Z,139.55
2023-05-16T10:21:22.256Z,132.60
2023-05-16T10:22:22.266Z,133.25
2023-05-16T10:23:22.304Z,136.10
2023-05-16T10:24:22.324Z,143.98
2023-05-16T10:25:22.329Z,151.78
2023-05-16T10:26:22.657Z,151.74
2023-05-16T10:27:22.404Z,159.60
2023-05-16T10:28:22.435Z,167.79
2023-05-16T10:29:22.488Z,168.50
2023-05-16T10:30:22.488Z,174.09
2023-05-16T10:31:22.791Z,175.66
2023-05-16T10:32:22.645Z,174.57
2023-05-16T10:33:22.626Z,175.37
2023-05-16T10:34:22.657Z,173.24
2023-05-16T10:35:23.253Z,170.80
2023-05-16T10:36:22.667Z,166.31
2023-05-16T10:37:22.635Z,175.79
2023-05-16T10:38:22.692Z,178.11
2023-05-16T10:39:22.739Z,173.90
2023-05-16T10:40:22.692Z,165.42
2023-05-16T10:41:22.774Z,159.19
2023-05-16T10:42:22.736Z,151.05
2023-05-16T10:43:22.787Z,146.60
2023-05-16T10:44:22.826Z,145.09
2023-05-16T10:45:22.856Z,137.07
2023-05-16T10:46:22.934Z,127.04
2023-05-16T10:47:22.928Z,117.60
2023-05-16T10:48:23.051Z,110.40
2023-05-16T10:49:23.066Z,108.25
2023-05-16T10:50:23.095Z,95.75
2023-05-16T10:51:23.139Z,100.45
2023-05-16T10:52:23.175Z,96.76
2023-05-16T10:53:23.235Z,92.06
2023-05-16T10:54:23.276Z,94.57
2023-05-16T10:55:23.336Z,95.08
2023-05-16T10:56:23.424Z,91.20
2023-05-16T10:57:23.456Z,92.42
2023-05-16T10:58:23.524Z,89.17
2023-05-16T10:59:23.570Z,88.08
2023-05-16T11:00:23.637Z,87.14
2023-05-16T11:01:23.791Z,95.99
2023-05-16T11:02:23.846Z,96.40
2023-05-16T11:03:23.898Z,89.84
2023-05-16T11:04:23.891Z,83.45
2023-05-16T11:05:23.942Z,79.66
2023-05-16T11:06:25.036Z,72.72
2023-05-16T11:07:24.082Z,66.36
2023-05-16T11:08:24.088Z,62.82
2023-05-16T11:09:24.186Z,62.47
2023-05-16T11:10:24.197Z,68.46
2023-05-16T11:11:24.284Z,65.61
2023-05-16T11:12:24.331Z,68.04
2023-05-16T11:13:24.372Z,70.21
2023-05-16T11:14:24.418Z,67.59
2023-05-16T11:15:24.579Z,63.24
2023-05-16T11:16:24.581Z,57.25
2023-05-16T11:17:24.824Z,55.56
2023-05-16T11:18:24.705Z,73.94
2023-05-16T11:19:24.744Z,97.34
2023-05-16T11:20:24.770Z,104.33
2023-05-16T11:21:24.804Z,122.00
2023-05-16T11:22:24.870Z,130.13
2023-05-16T11:23:24.917Z,120.20
2023-05-16T11:24:24.925Z,121.91
2023-05-16T11:25:25.063Z,127.55
2023-05-16T11:26:24.996Z,127.26
2023-05-16T11:27:25.033Z,118.21
2023-05-16T11:28:25.076Z,120.82
2023-05-16T11:29:25.132Z,127.81
2023-05-16T11:30:25.119Z,126.73
2023-05-16T11:31:25.226Z,124.11
2023-05-16T11:32:25.263Z,122.56
2023-05-16T11:33:25.245Z,130.49
2023-05-16T11:34:25.273Z,134.69
2023-05-16T11:35:25.338Z,135.01
2023-05-16T11:36:25.351Z,137.44
2023-05-16T11:37:25.402Z,130.41
2023-05-16T11:38:25.446Z,129.30
2023-05-16T11:39:25.534Z,127.87
2023-05-16T11:40:25.513Z,140.37
2023-05-16T11:41:25.617Z,143.90
2023-05-16T11:42:25.651Z,136.25
2023-05-16T11:43:25.660Z,144.65
2023-05-16T11:44:25.703Z,140.06
2023-05-16T11:45:25.868Z,146.21
2023-05-16T11:46:26.110Z,137.21
2023-05-16T11:47:25.854Z,135.13
2023-05-16T11:48:35.825Z,130.50
2023-05-16T11:49:26.898Z,130.69
2023-05-16T11:50:25.861Z,130.45
2023-05-16T11:51:26.132Z,127.93
2023-05-16T11:52:25.866Z,122.82
2023-05-16T11:53:25.852Z,119.60
2023-05-16T11:54:25.827Z,107.69
2023-05-16T11:55:40.407Z,114.32
2023-05-16T11:56:26.853Z,113.35
2023-05-16T11:57:25.836Z,109.08
2023-05-16T11:58:25.799Z,104.89
2023-05-16T11:59:25.813Z,101.00
2023-05-16T12:00:25.802Z,115.09
2023-05-16T12:01:25.791Z,113.23
2023-05-16T12:02:25.927Z,117.77
2023-05-16T12:03:25.848Z,111.90
2023-05-16T12:04:25.889Z,111.46
2023-05-16T12:05:25.857Z,103.22
2023-05-16T12:06:25.785Z,97.96
2023-05-16T12:07:25.987Z,104.02
2023-05-16T12:08:25.900Z,113.28
2023-05-16T12:09:25.934Z,103.00
2023-05-16T12:10:26.051Z,102.02
2023-05-16T12:11:26.106Z,96.88
2023-05-16T12:12:26.089Z,91.44
2023-05-16T12:13:26.096Z,86.82
2023-05-16T12:14:26.211Z,94.36
2023-05-16T12:15:26.490Z,96.71
2023-05-16T12:16:26.290Z,92.36
2023-05-16T12:17:26.299Z,94.91
2023-05-16T12:18:26.352Z,87.16
2023-05-16T12:19:26.478Z,90.07
2023-05-16T12:20:26.443Z,97.00
2023-05-16T12:21:26.456Z,122.19
2023-05-16T12:22:26.481Z,107.03
2023-05-16T12:23:26.529Z,116.01
2023-05-16T12:24:27.836Z,126.10
2023-05-16T12:25:26.965Z,129.37
2023-05-16T12:26:26.553Z,145.05
2023-05-16T12:27:26.705Z,114.97
2023-05-16T12:28:26.529Z,95.37
2023-05-16T12:29:26.520Z,90.60
2023-05-16T12:30:26.704Z,87.63
2023-05-16T12:31:31.629Z,75.55
2023-05-16T12:32:27.600Z,74.81
2023-05-16T12:33:26.515Z,75.56
2023-05-16T12:34:28.130Z,76.43
2023-05-16T12:35:26.487Z,81.21
2023-05-16T12:36:26.612Z,77.62
2023-05-16T12:37:26.454Z,66.91
2023-05-16T12:38:26.545Z,64.23
2023-05-16T12:39:26.491Z,64.45
2023-05-16T12:40:26.697Z,82.71
2023-05-16T12:41:26.432Z,90.58
2023-05-16T12:42:26.434Z,75.30
2023-05-16T12:43:26.515Z,67.02